createdAt,value
2023-03-28T00:01:15.708Z,95.32
2023-03-28T00:03:46.637Z,95.56
2023-03-28T00:06:18.923Z,95.50
2023-03-28T00:08:48.214Z,95.47
2023-03-28T00:11:20.188Z,94.66
2023-03-28T00:13:50.387Z,93.94
2023-03-28T00:16:19.090Z,93.94
2023-03-28T00:18:47.647Z,93.79
2023-03-28T00:21:19.890Z,94.54
2023-03-28T00:23:52.705Z,95.11
2023-03-28T00:26:24.935Z,95.88
2023-03-28T00:28:53.710Z,96.64
2023-03-28T00:31:25.341Z,97.39
2023-03-28T00:33:53.985Z,97.62
2023-03-28T00:36:26.865Z,98.28
2023-03-28T00:39:01.496Z,98.89
2023-03-28T00:41:33.052Z,99.19
2023-03-28T00:44:01.436Z,99.28
2023-03-28T00:46:41.279Z,99.81
2023-03-28T00:49:21.496Z,99.97
2023-03-28T00:51:57.558Z,100.00
2023-03-28T00:54:26.987Z,100.00
2023-03-28T00:56:58.712Z,100.00
2023-03-28T00:59:29.487Z,100.00
2023-03-28T01:01:57.839Z,100.00
2023-03-28T01:04:33.491Z,100.00
2023-03-28T01:07:02.110Z,100.00
2023-03-28T01:09:32.359Z,100.00
2023-03-28T01:12:01.287Z,100.00
2023-03-28T01:14:29.872Z,100.00
2023-03-28T01:16:59.065Z,100.00
2023-03-28T01:19:31.293Z,100.00
2023-03-28T01:22:25.155Z,100.00
2023-03-28T01:25:23.152Z,100.00
2023-03-28T01:28:04.843Z,100.00
2023-03-28T01:31:04.395Z,100.00
2023-03-28T01:34:25.754Z,100.00
2023-03-28T01:37:31.686Z,100.00
2023-03-28T01:40:22.306Z,100.00
2023-03-28T01:43:10.707Z,100.00
2023-03-28T01:45:56.033Z,100.00
2023-03-28T01:48:34.531Z,100.00
2023-03-28T01:51:32.134Z,100.00
2023-03-28T01:54:05.425Z,100.00
2023-03-28T01:56:41.815Z,100.00
2023-03-28T01:59:31.892Z,100.00
2023-03-28T02:02:42.421Z,100.00
2023-03-28T02:05:24.016Z,100.00
2023-03-28T02:07:58.439Z,100.00
2023-03-28T02:10:49.526Z,100.00
2023-03-28T02:13:49.184Z,100.00
2023-03-28T02:16:41.658Z,100.00
2023-03-28T02:19:34.132Z,100.00
2023-03-28T02:22:25.849Z,100.00
2023-03-28T02:24:59.930Z,100.00
2023-03-28T02:27:40.176Z,100.00
2023-03-28T02:30:23.013Z,100.00
2023-03-28T02:32:52.784Z,100.00
2023-03-28T02:35:24.371Z,100.00
2023-03-28T02:38:04.305Z,100.00
2023-03-28T02:40:40.530Z,100.00
2023-03-28T02:43:30.344Z,100.00
2023-03-28T02:46:11.726Z,100.00
2023-03-28T02:48:43.637Z,100.00
2023-03-28T02:51:22.714Z,100.00
2023-03-28T02:54:03.646Z,100.00
2023-03-28T02:56:43.809Z,100.00
2023-03-28T02:59:27.738Z,100.00
2023-03-28T03:01:56.922Z,100.00
2023-03-28T03:04:25.401Z,100.00
2023-03-28T03:06:53.831Z,100.00
2023-03-28T03:09:27.251Z,100.00
2023-03-28T03:11:56.163Z,100.00
2023-03-28T03:14:24.451Z,100.00
2023-03-28T03:16:54.359Z,100.00
2023-03-28T03:19:23.027Z,100.00
2023-03-28T03:21:51.189Z,100.00
2023-03-28T03:24:19.450Z,100.00
2023-03-28T03:26:48.264Z,100.00
2023-03-28T03:29:18.067Z,100.00
2023-03-28T03:31:46.914Z,100.00
2023-03-28T03:34:41.591Z,100.00
2023-03-28T03:37:10.095Z,100.00
2023-03-28T03:39:38.281Z,100.00
2023-03-28T03:42:11.328Z,100.00
2023-03-28T03:44:49.327Z,100.00
2023-03-28T03:47:19.951Z,100.00
2023-03-28T03:49:51.199Z,100.00
2023-03-28T03:52:19.577Z,100.00
2023-03-28T03:54:48.394Z,100.00
2023-03-28T03:57:17.760Z,100.00
2023-03-28T03:59:46.486Z,100.00
2023-03-28T04:02:18.045Z,100.00
2023-03-28T04:05:00.015Z,100.00
2023-03-28T04:08:01.751Z,100.00
2023-03-28T04:10:42.799Z,100.00
2023-03-28T04:13:11.290Z,100.00
2023-03-28T04:15:39.563Z,100.00
2023-03-28T04:18:29.961Z,100.00
2023-03-28T04:20:59.875Z,100.00
2023-03-28T04:23:48.559Z,100.00
2023-03-28T04:26:38.267Z,100.00
2023-03-28T04:29:10.744Z,100.00
2023-03-28T04:31:40.416Z,100.00
2023-03-28T04:34:30.324Z,100.00
2023-03-28T04:37:06.988Z,100.00
2023-03-28T04:39:48.210Z,100.00
2023-03-28T04:42:39.569Z,100.00
2023-03-28T04:45:17.175Z,100.00
2023-03-28T04:47:46.899Z,100.00
2023-03-28T04:50:20.241Z,100.00
2023-03-28T04:52:48.636Z,100.00
2023-03-28T04:55:17.771Z,100.00
2023-03-28T04:57:49.118Z,100.00
2023-03-28T05:00:20.368Z,100.00
2023-03-28T05:03:18.732Z,100.00
2023-03-28T05:05:58.724Z,100.00
2023-03-28T05:08:27.977Z,100.00
2023-03-28T05:10:56.318Z,100.00
2023-03-28T05:13:27.661Z,100.00
2023-03-28T05:16:19.603Z,100.00
2023-03-28T05:19:14.852Z,100.00
2023-03-28T05:22:09.530Z,100.00
2023-03-28T05:24:39.891Z,100.00
2023-03-28T05:27:13.999Z,100.00
2023-03-28T05:29:45.202Z,100.00
2023-03-28T05:32:19.297Z,100.00
2023-03-28T05:34:47.610Z,100.00
2023-03-28T05:37:16.112Z,100.00
2023-03-28T05:39:47.165Z,100.00
2023-03-28T05:42:15.736Z,100.00
2023-03-28T05:44:44.940Z,100.00
2023-03-28T05:47:33.337Z,100.00
2023-03-28T05:50:02.239Z,100.00
2023-03-28T05:52:31.941Z,100.00
2023-03-28T05:55:00.804Z,100.00
2023-03-28T05:57:31.566Z,100.00
2023-03-28T06:00:00.056Z,100.00
2023-03-28T06:02:33.613Z,100.00
2023-03-28T06:05:02.505Z,100.00
2023-03-28T06:07:41.924Z,100.00
2023-03-28T06:10:13.364Z,100.00
2023-03-28T06:12:45.981Z,100.00
2023-03-28T06:15:14.264Z,100.00
2023-03-28T06:17:50.581Z,100.00
2023-03-28T06:20:22.593Z,100.00
2023-03-28T06:22:55.513Z,100.00
2023-03-28T06:25:23.934Z,100.00
2023-03-28T06:27:52.534Z,100.00
2023-03-28T06:30:21.601Z,100.00
2023-03-28T06:32:53.566Z,100.00
2023-03-28T06:35:22.766Z,100.00
2023-03-28T06:37:54.929Z,100.00
2023-03-28T06:40:33.519Z,100.00
2023-03-28T06:43:01.951Z,100.00
2023-03-28T06:45:47.071Z,100.00
2023-03-28T06:48:17.539Z,100.00
2023-03-28T06:51:06.805Z,100.00
2023-03-28T06:53:36.324Z,100.00
2023-03-28T06:56:04.840Z,100.00
2023-03-28T06:58:36.500Z,100.00
2023-03-28T07:01:16.129Z,100.00
2023-03-28T07:04:14.754Z,100.00
2023-03-28T07:06:47.677Z,100.00
2023-03-28T07:09:16.040Z,100.00
2023-03-28T07:12:12.852Z,100.00
2023-03-28T07:14:48.477Z,100.00
2023-03-28T07:17:19.409Z,100.00
2023-03-28T07:19:54.581Z,100.00
2023-03-28T07:22:24.024Z,100.00
2023-03-28T07:24:52.599Z,100.00
2023-03-28T07:27:24.859Z,100.00
2023-03-28T07:29:59.157Z,100.00
2023-03-28T07:32:35.805Z,100.00
2023-03-28T07:35:23.316Z,100.00
2023-03-28T07:37:53.168Z,100.00
2023-03-28T07:40:51.014Z,100.00
2023-03-28T07:43:21.923Z,100.00
2023-03-28T07:46:06.949Z,100.00
2023-03-28T07:48:37.010Z,100.00
2023-03-28T07:51:09.456Z,100.00
2023-03-28T07:53:43.311Z,100.00
2023-03-28T07:56:12.266Z,100.00
2023-03-28T07:59:04.526Z,100.00
2023-03-28T08:01:33.740Z,100.00
2023-03-28T08:04:10.041Z,100.00
2023-03-28T08:07:00.456Z,100.00
2023-03-28T08:09:28.889Z,100.00
2023-03-28T08:12:28.347Z,100.00
2023-03-28T08:15:16.671Z,100.00
2023-03-28T08:17:45.639Z,100.00
2023-03-28T08:20:20.157Z,100.00
2023-03-28T08:22:49.681Z,100.00
2023-03-28T08:25:36.404Z,100.00
2023-03-28T08:28:05.518Z,100.00
2023-03-28T08:30:35.779Z,100.00
2023-03-28T08:33:05.055Z,100.00
2023-03-28T08:35:34.043Z,100.00
2023-03-28T08:38:11.338Z,100.00
2023-03-28T08:40:46.210Z,100.00
2023-03-28T08:43:25.710Z,100.00
2023-03-28T08:45:54.032Z,100.00
2023-03-28T08:48:27.843Z,100.00
2023-03-28T08:51:11.837Z,100.00
2023-03-28T08:53:49.285Z,100.00
2023-03-28T08:56:18.476Z,100.00
2023-03-28T08:58:51.564Z,100.00
2023-03-28T09:01:23.752Z,100.00
2023-03-28T09:03:52.507Z,100.00
2023-03-28T09:06:39.060Z,100.00
2023-03-28T09:09:20.542Z,100.00
2023-03-28T09:13:12.524Z,100.00
2023-03-28T09:16:22.422Z,100.00
2023-03-28T09:19:40.548Z,100.00
2023-03-28T09:22:57.299Z,100.00
2023-03-28T09:25:52.327Z,100.00
2023-03-28T09:28:51.375Z,100.00
2023-03-28T09:31:29.037Z,100.00
2023-03-28T09:34:00.877Z,100.00
2023-03-28T09:36:49.406Z,100.00
2023-03-28T09:39:37.929Z,100.00
2023-03-28T09:42:25.560Z,100.00
2023-03-28T09:45:36.353Z,100.00
2023-03-28T09:48:35.425Z,100.00
2023-03-28T09:51:07.799Z,100.00
2023-03-28T09:53:39.547Z,100.00
2023-03-28T09:56:23.797Z,99.96
2023-03-28T09:58:57.115Z,99.17
2023-03-28T10:01:43.696Z,97.83
2023-03-28T10:04:39.115Z,96.96
2023-03-28T10:07:38.126Z,95.83
2023-03-28T10:10:25.205Z,94.53
2023-03-28T10:13:03.237Z,92.82
2023-03-28T10:15:33.121Z,92.33
2023-03-28T10:18:21.069Z,91.85
2023-03-28T10:21:25.894Z,91.34
2023-03-28T10:24:19.091Z,91.07
2023-03-28T10:27:24.288Z,90.47
2023-03-28T10:29:55.861Z,90.38
2023-03-28T10:32:31.359Z,89.81
2023-03-28T11:08:46.991Z,83.30
2023-03-28T11:11:55.581Z,83.07
2023-03-28T11:14:43.228Z,83.02
2023-03-28T11:17:47.692Z,82.99
2023-03-28T11:20:50.613Z,80.67
2023-03-28T11:23:38.569Z,78.97
2023-03-28T11:27:15.615Z,78.33
2023-03-28T11:30:17.039Z,78.22
2023-03-28T11:33:13.430Z,77.07
2023-03-28T11:35:48.734Z,76.01
2023-03-28T11:38:25.169Z,76.09
2023-03-28T11:41:00.735Z,76.02
2023-03-28T11:44:06.161Z,76.59
2023-03-28T11:46:43.103Z,76.79
2023-03-28T11:49:42.720Z,77.14
2023-03-28T11:52:36.685Z,76.46
2023-03-28T11:55:09.504Z,76.51
2023-03-28T11:57:51.602Z,75.22
2023-03-28T12:00:33.229Z,74.41
2023-03-28T12:03:30.570Z,74.83
2023-03-28T12:06:05.380Z,74.88
2023-03-28T12:08:38.617Z,74.69
2023-03-28T12:11:14.518Z,74.52
2023-03-28T12:14:11.661Z,74.54
2023-03-28T12:16:45.886Z,74.65
2023-03-28T12:19:34.482Z,74.67
2023-03-28T12:22:26.937Z,75.05
2023-03-28T12:25:01.266Z,75.00
2023-03-28T12:28:08.647Z,74.54
2023-03-28T12:30:45.633Z,74.61
2023-03-28T12:33:36.022Z,74.42
2023-03-28T12:36:18.157Z,74.55
2023-03-28T12:39:12.673Z,73.86
2023-03-28T12:41:44.425Z,73.36
2023-03-28T12:44:25.092Z,73.19
2023-03-28T12:47:00.267Z,72.08
2023-03-28T12:49:45.287Z,71.15
2023-03-28T12:52:28.682Z,70.32
2023-03-28T12:55:01.115Z,70.53
2023-03-28T12:57:55.056Z,70.63
2023-03-28T13:01:07.134Z,70.91
2023-03-28T13:04:00.250Z,70.63
2023-03-28T13:07:03.957Z,70.63
2023-03-28T13:09:49.978Z,69.98
2023-03-28T13:12:46.439Z,69.49
2023-03-28T13:15:14.773Z,68.97
2023-03-28T13:18:20.465Z,68.72
2023-03-28T13:20:51.679Z,68.36
2023-03-28T13:23:45.252Z,68.35
2023-03-28T13:26:14.095Z,68.19
2023-03-28T13:28:50.677Z,67.76
2023-03-28T13:31:25.811Z,68.15
2023-03-28T13:34:02.823Z,67.78
2023-03-28T13:36:35.659Z,67.67
2023-03-28T13:39:09.769Z,67.89
2023-03-28T13:41:44.134Z,67.47
2023-03-28T13:44:22.325Z,66.56
2023-03-28T13:46:56.841Z,66.44
2023-03-28T13:49:41.762Z,66.46
2023-03-28T13:52:16.286Z,66.09
2023-03-28T13:54:46.450Z,66.05
2023-03-28T13:57:18.938Z,66.09
2023-03-28T14:00:07.245Z,66.18
2023-03-28T14:02:47.126Z,65.98
2023-03-28T14:05:26.142Z,66.51
2023-03-28T14:08:02.283Z,66.79
2023-03-28T14:10:36.122Z,66.85
2023-03-28T14:13:15.246Z,66.84
2023-03-28T14:15:44.865Z,66.91
2023-03-28T14:18:19.027Z,67.27
2023-03-28T14:20:48.034Z,67.87
2023-03-28T14:23:27.960Z,68.54
2023-03-28T14:26:03.984Z,69.04
2023-03-28T14:28:38.104Z,68.65
2023-03-28T14:31:15.187Z,68.17
2023-03-28T14:33:47.365Z,68.08
2023-03-28T14:36:19.509Z,68.40
2023-03-28T14:38:48.019Z,68.72
2023-03-28T14:41:21.713Z,68.61
2023-03-28T14:44:00.412Z,68.52
2023-03-28T14:46:35.173Z,68.53
2023-03-28T14:49:06.800Z,68.70
2023-03-28T14:51:42.812Z,68.74
2023-03-28T14:54:19.336Z,69.01
2023-03-28T14:56:48.119Z,69.31
2023-03-28T14:59:21.285Z,69.30
2023-03-28T15:01:53.567Z,69.72
2023-03-28T15:04:23.049Z,68.43
2023-03-28T15:06:58.795Z,67.34
2023-03-28T15:09:34.496Z,66.66
2023-03-28T15:12:05.406Z,67.15
2023-03-28T15:14:40.009Z,67.59
2023-03-28T15:17:13.779Z,67.02
2023-03-28T15:19:42.646Z,67.55
2023-03-28T15:22:12.634Z,67.13
2023-03-28T15:24:46.069Z,67.91
2023-03-28T15:27:22.975Z,67.73
2023-03-28T15:29:51.270Z,66.96
2023-03-28T15:32:20.556Z,66.79
2023-03-28T15:34:56.618Z,66.79
2023-03-28T15:37:27.350Z,67.24
2023-03-28T15:40:23.382Z,67.83
2023-03-28T15:42:52.061Z,68.33
2023-03-28T15:45:20.925Z,68.73
2023-03-28T15:47:50.516Z,69.20
2023-03-28T15:50:26.631Z,69.24
2023-03-28T15:53:04.289Z,68.91
2023-03-28T15:55:34.575Z,68.71
2023-03-28T15:58:04.587Z,68.43
2023-03-28T16:00:37.043Z,68.36
2023-03-28T16:03:21.373Z,68.25
2023-03-28T16:06:01.870Z,68.37
2023-03-28T16:09:12.932Z,67.76
2023-03-28T16:11:42.442Z,68.69
2023-03-28T16:14:20.082Z,69.11
2023-03-28T16:17:07.893Z,69.45
2023-03-28T16:19:44.143Z,69.64
2023-03-28T16:22:12.889Z,69.57
2023-03-28T16:24:42.683Z,69.37
2023-03-28T16:27:11.776Z,69.36
2023-03-28T16:29:43.482Z,69.56
2023-03-28T16:32:12.884Z,69.24
2023-03-28T16:34:42.174Z,69.43
2023-03-28T16:37:10.479Z,69.90
2023-03-28T16:39:39.249Z,69.84
2023-03-28T16:42:07.472Z,69.55
2023-03-28T16:44:35.673Z,69.74
2023-03-28T16:47:04.203Z,69.55
2023-03-28T16:49:33.037Z,69.00
2023-03-28T16:52:01.204Z,68.90
2023-03-28T16:54:31.157Z,68.58
2023-03-28T16:56:59.617Z,67.83
2023-03-28T16:59:27.875Z,67.92
2023-03-28T17:01:56.204Z,68.27
2023-03-28T17:04:24.390Z,67.89
2023-03-28T17:06:52.955Z,67.93
2023-03-28T17:09:22.633Z,67.87
2023-03-28T17:11:51.297Z,68.04
2023-03-28T17:14:21.411Z,67.47
2023-03-28T17:16:50.698Z,68.28
2023-03-28T17:19:24.294Z,68.37
2023-03-28T17:22:02.154Z,68.51
2023-03-28T17:24:33.241Z,68.58
2023-03-28T17:27:01.933Z,68.60
2023-03-28T17:29:30.948Z,69.08
2023-03-28T17:31:59.162Z,69.09
2023-03-28T17:34:27.446Z,68.57
2023-03-28T17:37:04.360Z,68.11
2023-03-28T17:39:32.565Z,67.96
2023-03-28T17:42:00.887Z,67.74
2023-03-28T17:44:29.404Z,67.79
2023-03-28T17:47:00.810Z,67.76
2023-03-28T17:49:29.611Z,67.87
2023-03-28T17:51:58.277Z,67.89
2023-03-28T17:54:26.535Z,68.08
2023-03-28T17:56:58.210Z,68.50
2023-03-28T17:59:29.491Z,68.28
2023-03-28T18:01:58.562Z,67.96
2023-03-28T18:04:28.015Z,68.01
2023-03-28T18:07:17.355Z,67.97
2023-03-28T18:09:52.048Z,67.15
2023-03-28T18:12:21.506Z,66.77
2023-03-28T18:14:49.745Z,66.71
2023-03-28T18:17:24.176Z,66.55
2023-03-28T18:19:52.857Z,66.15
2023-03-28T18:22:21.061Z,66.08
2023-03-28T18:24:49.190Z,66.18
2023-03-28T18:27:17.625Z,65.95
2023-03-28T18:29:47.646Z,66.06
2023-03-28T18:32:16.545Z,66.35
2023-03-28T18:34:45.575Z,66.72
2023-03-28T18:37:13.858Z,66.86
2023-03-28T18:39:42.345Z,66.98
2023-03-28T18:42:11.353Z,67.05
2023-03-28T18:44:41.518Z,67.40
2023-03-28T18:47:13.782Z,67.72
2023-03-28T18:49:42.345Z,67.86
2023-03-28T18:52:10.849Z,68.31
2023-03-28T18:54:45.879Z,68.54
2023-03-28T18:57:15.148Z,68.49
2023-03-28T18:59:47.105Z,68.69
2023-03-28T19:02:16.547Z,68.96
2023-03-28T19:04:45.000Z,69.14
2023-03-28T19:07:17.377Z,69.04
2023-03-28T19:09:46.644Z,69.03
2023-03-28T19:12:14.888Z,68.68
2023-03-28T19:14:43.839Z,68.63
2023-03-28T19:17:12.535Z,68.74
2023-03-28T19:19:40.667Z,68.47
2023-03-28T19:22:10.852Z,68.33
2023-03-28T19:24:39.332Z,68.38
2023-03-28T19:27:07.634Z,68.06
2023-03-28T19:29:39.880Z,68.07
2023-03-28T19:32:10.757Z,67.96
2023-03-28T19:34:38.916Z,68.10
2023-03-28T19:37:07.022Z,67.78
2023-03-28T19:39:35.239Z,67.83
2023-03-28T19:42:03.510Z,67.68
2023-03-28T19:44:33.503Z,67.69
2023-03-28T19:47:04.699Z,67.59
2023-03-28T19:49:39.377Z,67.69
2023-03-28T19:52:10.094Z,67.93
2023-03-28T19:54:38.574Z,67.90
2023-03-28T19:57:08.443Z,68.57
2023-03-28T19:59:37.290Z,68.82
2023-03-28T20:02:06.468Z,68.88
2023-03-28T20:04:37.850Z,68.54
2023-03-28T20:07:06.245Z,68.06
2023-03-28T20:09:48.910Z,67.61
2023-03-28T20:12:20.246Z,68.00
2023-03-28T20:14:48.510Z,67.86
2023-03-28T20:17:17.788Z,67.41
2023-03-28T20:19:46.637Z,67.38
2023-03-28T20:22:14.847Z,67.62
2023-03-28T20:24:43.173Z,67.56
2023-03-28T20:27:12.687Z,67.86
2023-03-28T20:29:45.445Z,68.00
2023-03-28T20:32:13.738Z,68.20
2023-03-28T20:34:42.377Z,67.89
2023-03-28T20:37:14.159Z,67.53
2023-03-28T20:39:47.433Z,67.58
2023-03-28T20:42:15.690Z,67.58
2023-03-28T20:44:43.974Z,67.53
2023-03-28T20:47:15.102Z,67.38
2023-03-28T20:49:46.644Z,66.86
2023-03-28T20:52:17.618Z,66.98
2023-03-28T20:54:47.745Z,66.86
2023-03-28T20:57:42.366Z,66.89
2023-03-28T21:00:14.560Z,66.78
2023-03-28T21:02:46.345Z,66.56
2023-03-28T21:05:14.891Z,66.63
2023-03-28T21:07:44.453Z,66.33
2023-03-28T21:10:14.421Z,66.17
2023-03-28T21:12:43.852Z,65.86
2023-03-28T21:15:12.196Z,65.91
2023-03-28T21:17:41.884Z,65.65
2023-03-28T21:20:10.577Z,65.88
2023-03-28T21:22:39.258Z,66.33
2023-03-28T21:25:08.053Z,66.31
2023-03-28T21:27:39.597Z,65.91
2023-03-28T21:30:08.673Z,65.26
2023-03-28T21:33:02.189Z,64.81
2023-03-28T21:35:32.250Z,64.44
2023-03-28T21:38:00.635Z,64.24
2023-03-28T21:40:28.820Z,64.34
2023-03-28T21:42:59.428Z,64.97
2023-03-28T21:45:28.018Z,64.91
2023-03-28T21:47:59.228Z,64.48
2023-03-28T21:50:31.767Z,63.87
2023-03-28T21:53:00.578Z,63.89
2023-03-28T21:55:29.268Z,63.68
2023-03-28T21:57:58.315Z,63.67
2023-03-28T22:00:26.765Z,63.36
2023-03-28T22:02:55.771Z,62.63
2023-03-28T22:05:29.801Z,62.40
2023-03-28T22:07:58.691Z,62.54
2023-03-28T22:10:27.123Z,62.31
2023-03-28T22:12:58.931Z,62.28
2023-03-28T22:15:27.873Z,62.42
2023-03-28T22:17:58.449Z,62.58
2023-03-28T22:20:35.844Z,62.70
2023-03-28T22:23:04.770Z,62.81
2023-03-28T22:25:34.934Z,63.27
2023-03-28T22:28:12.754Z,63.38
2023-03-28T22:30:41.621Z,63.66
2023-03-28T22:33:11.220Z,63.93
2023-03-28T22:35:40.444Z,63.94
2023-03-28T22:38:08.937Z,64.18
2023-03-28T22:40:37.045Z,64.09
2023-03-28T22:43:05.250Z,64.25
2023-03-28T22:45:34.488Z,64.54
2023-03-28T22:48:03.513Z,64.55
2023-03-28T22:50:33.968Z,64.94
2023-03-28T22:53:04.511Z,65.05
2023-03-28T22:55:33.706Z,64.86
2023-03-28T22:58:05.439Z,65.05
2023-03-28T23:00:34.633Z,64.96
2023-03-28T23:03:02.913Z,65.02
2023-03-28T23:05:32.079Z,64.92
2023-03-28T23:08:01.091Z,65.09
2023-03-28T23:10:29.689Z,65.09
2023-03-28T23:12:58.550Z,65.49
2023-03-28T23:15:26.935Z,65.76
2023-03-28T23:17:56.105Z,66.02
2023-03-28T23:20:26.677Z,65.79
2023-03-28T23:22:55.052Z,65.68
2023-03-28T23:25:23.261Z,66.09
2023-03-28T23:27:51.728Z,65.76
2023-03-28T23:30:19.985Z,65.69
2023-03-28T23:32:48.568Z,65.77
2023-03-28T23:35:17.099Z,65.77
2023-03-28T23:37:47.897Z,66.60
2023-03-28T23:40:16.203Z,66.74
2023-03-28T23:42:45.091Z,66.76
2023-03-28T23:45:15.059Z,67.19
2023-03-28T23:47:44.053Z,67.11
2023-03-28T23:50:12.906Z,67.19
2023-03-28T23:52:41.258Z,67.36
2023-03-28T23:55:17.251Z,67.23
2023-03-28T23:57:47.533Z,66.92
